Time;durP1;ratioP1;P1;durP2;ratioP2;P2;SDS_P1;SDS_P2;PMS_P1;PMS_P2;Temp;Humidity;BMP_temperature;BMP_pressure;BME280_temperature;BME280_humidity;BME280_pressure;Samples;Min_cycle;Max_cycle;Signal;HPM_P1;HPM_P2
2021/08/26 00:07:35;;;;;;;4.27;2.03;;;17.50;99.90;;;;;;5016757;28;20563;-74
2021/08/26 00:10:06;;;;;;;2.40;2.30;;;17.40;99.90;;;;;;5015123;28;20443;-74
2021/08/26 00:12:31;;;;;;;6.50;1.20;;;17.40;99.90;;;;;;5016773;28;20843;-74
2021/08/26 00:14:59;;;;;;;1.97;1.33;;;17.40;99.90;;;;;;5016871;28;20422;-74
2021/08/26 00:17:25;;;;;;;2.17;1.30;;;17.30;99.90;;;;;;5015219;28;20294;-74
2021/08/26 00:19:53;;;;;;;2.47;2.37;;;17.30;99.90;;;;;;5020401;28;20512;-74
2021/08/26 00:22:19;;;;;;;2.00;0.93;;;17.40;99.90;;;;;;5016981;28;20842;-73
2021/08/26 00:24:45;;;;;;;3.03;1.47;;;17.30;99.90;;;;;;5018957;28;20437;-74
2021/08/26 00:27:11;;;;;;;3.17;2.20;;;17.30;99.90;;;;;;5020468;28;20442;-74
2021/08/26 00:29:36;;;;;;;2.40;2.20;;;17.20;99.90;;;;;;5017748;28;20512;-73
2021/08/26 00:32:02;;;;;;;1.90;1.53;;;17.20;99.90;;;;;;5016151;28;20515;-73
2021/08/26 00:34:28;;;;;;;1.33;1.23;;;17.10;99.90;;;;;;5021106;28;20176;-74
2021/08/26 00:36:53;;;;;;;2.30;0.90;;;17.00;99.90;;;;;;5018790;28;20180;-73
2021/08/26 00:39:19;;;;;;;0.90;0.80;;;17.10;99.90;;;;;;5015838;28;20295;-74
2021/08/26 00:41:44;;;;;;;1.30;1.07;;;17.00;99.90;;;;;;5018582;28;20180;-73
2021/08/26 00:44:10;;;;;;;1.53;1.43;;;17.00;99.90;;;;;;5024711;28;20180;-74
2021/08/26 00:46:37;;;;;;;1.00;0.90;;;17.00;99.90;;;;;;5017267;28;20287;-74
2021/08/26 00:49:07;;;;;;;1.33;1.07;;;17.00;99.90;;;;;;5020198;28;20689;-72
2021/08/26 00:51:33;;;;;;;1.00;0.90;;;17.00;99.90;;;;;;5018681;28;20427;-74
2021/08/26 00:53:59;;;;;;;0.80;0.60;;;16.90;99.90;;;;;;5016740;28;20477;-73
2021/08/26 00:56:25;;;;;;;1.10;1.00;;;16.90;99.90;;;;;;5017412;28;20442;-73
2021/08/26 00:58:51;;;;;;;0.90;0.73;;;16.90;99.90;;;;;;5018248;28;20215;-74
2021/08/26 01:01:29;;;;;;;1.33;0.87;;;16.90;99.90;;;;;;5019126;28;20207;-74
2021/08/26 01:04:05;;;;;;;1.47;1.00;;;16.80;99.90;;;;;;5018678;28;20425;-73
2021/08/26 01:06:42;;;;;;;1.40;1.30;;;16.90;99.90;;;;;;5016572;28;20915;-74
2021/08/26 01:09:13;;;;;;;4.60;2.03;;;16.90;99.90;;;;;;5018229;28;20803;-73
2021/08/26 01:11:43;;;;;;;3.03;1.23;;;16.80;99.90;;;;;;5016847;28;20432;-74
2021/08/26 01:14:15;;;;;;;1.00;0.80;;;16.80;99.90;;;;;;5016371;28;20488;-74
2021/08/26 01:16:41;;;;;;;0.83;0.83;;;16.80;99.90;;;;;;5024197;28;20457;-73
2021/08/26 01:19:07;;;;;;;0.93;0.83;;;16.80;99.90;;;;;;5030066;28;20481;-74
2021/08/26 01:21:33;;;;;;;0.70;0.50;;;16.90;99.90;;;;;;5015478;28;20804;-73
2021/08/26 01:24:01;;;;;;;1.40;1.30;;;16.80;99.90;;;;;;5030433;28;20423;-74
2021/08/26 01:26:31;;;;;;;0.80;0.60;;;16.90;99.90;;;;;;5018617;28;20522;-74
2021/08/26 01:28:58;;;;;;;0.80;0.63;;;16.80;99.90;;;;;;5022083;28;20442;-74
2021/08/26 01:31:24;;;;;;;1.63;1.07;;;16.80;99.90;;;;;;5019380;28;20461;-74
2021/08/26 01:33:51;;;;;;;2.03;1.17;;;16.80;99.90;;;;;;5018798;28;20435;-74
2021/08/26 01:36:17;;;;;;;1.90;1.20;;;16.80;99.90;;;;;;5020202;28;20231;-74
2021/08/26 01:38:47;;;;;;;0.90;0.73;;;16.70;99.90;;;;;;5014536;28;20494;-74
2021/08/26 01:41:16;;;;;;;0.70;0.50;;;16.70;99.90;;;;;;5019110;28;20425;-74
2021/08/26 01:43:46;;;;;;;1.57;1.47;;;16.80;99.90;;;;;;5017848;28;20951;-73
2021/08/26 01:46:14;;;;;;;1.07;0.70;;;16.80;99.90;;;;;;5014785;28;20435;-73
2021/08/26 01:48:39;;;;;;;1.10;0.90;;;16.80;99.90;;;;;;5017667;28;20448;-74
2021/08/26 01:51:05;;;;;;;0.70;0.50;;;16.80;99.90;;;;;;5015274;28;20422;-73
2021/08/26 01:53:30;;;;;;;0.70;0.60;;;16.80;99.90;;;;;;5023811;28;20255;-74
2021/08/26 01:55:56;;;;;;;1.70;1.60;;;16.70;99.90;;;;;;5017842;28;20194;-74
2021/08/26 01:58:21;;;;;;;0.80;0.60;;;16.80;99.90;;;;;;5014061;28;20210;-74
2021/08/26 02:00:47;;;;;;;0.80;0.80;;;16.70;99.90;;;;;;5019087;28;20510;-73
2021/08/26 02:03:12;;;;;;;0.80;0.50;;;16.60;99.90;;;;;;5019221;28;20199;-74
2021/08/26 02:05:38;;;;;;;3.23;1.17;;;16.60;99.90;;;;;;5023470;28;20176;-74
2021/08/26 02:08:04;;;;;;;1.40;0.80;;;16.60;99.90;;;;;;5016790;28;20231;-74
2021/08/26 02:10:30;;;;;;;1.13;0.73;;;16.50;99.90;;;;;;5014187;28;20184;-75
2021/08/26 02:12:55;;;;;;;1.10;0.90;;;16.50;99.90;;;;;;5013500;28;20426;-74
2021/08/26 02:15:21;;;;;;;0.90;0.77;;;16.50;99.90;;;;;;5010100;28;20322;-73
2021/08/26 02:17:46;;;;;;;0.70;0.50;;;16.50;99.90;;;;;;5011297;28;20254;-74
2021/08/26 02:20:13;;;;;;;0.70;0.60;;;16.50;99.90;;;;;;5016088;28;20231;-74
2021/08/26 02:22:39;;;;;;;0.80;0.70;;;16.40;99.90;;;;;;5013782;28;20192;-74
2021/08/26 02:25:06;;;;;;;1.07;0.63;;;16.40;99.90;;;;;;5014092;28;20419;-74
2021/08/26 02:27:32;;;;;;;2.03;1.17;;;16.40;99.90;;;;;;5016513;28;20262;-74
2021/08/26 02:29:57;;;;;;;0.70;0.50;;;16.40;99.90;;;;;;5014618;28;20466;-73
2021/08/26 02:32:23;;;;;;;0.80;0.80;;;16.40;99.90;;;;;;5013816;28;20183;-74
2021/08/26 02:34:49;;;;;;;1.67;1.57;;;16.40;99.90;;;;;;5014896;28;20191;-74
2021/08/26 02:37:15;;;;;;;0.77;0.57;;;16.50;99.90;;;;;;5023009;28;20453;-74
2021/08/26 02:39:40;;;;;;;0.70;0.50;;;16.50;99.90;;;;;;5015996;28;20238;-74
2021/08/26 02:42:06;;;;;;;0.80;0.60;;;16.50;99.90;;;;;;5016394;28;20176;-74
2021/08/26 02:44:31;;;;;;;0.70;0.50;;;16.50;99.90;;;;;;5014116;28;20211;-74
2021/08/26 02:46:57;;;;;;;0.90;0.70;;;16.50;99.90;;;;;;5017842;28;20188;-74
2021/08/26 02:49:23;;;;;;;1.97;1.87;;;16.60;99.90;;;;;;5016716;28;20196;-74
2021/08/26 02:51:48;;;;;;;1.17;1.10;;;16.60;99.90;;;;;;5015725;28;20521;-73
2021/08/26 02:54:14;;;;;;;0.80;0.70;;;16.60;99.90;;;;;;5014455;28;20176;-74
2021/08/26 02:56:40;;;;;;;0.70;0.50;;;16.60;99.90;;;;;;5014046;28;20630;-74
2021/08/26 02:59:05;;;;;;;0.90;0.60;;;16.60;99.90;;;;;;5014889;28;20199;-74
2021/08/26 03:01:31;;;;;;;0.70;0.53;;;16.60;99.90;;;;;;5014347;28;20307;-74
2021/08/26 03:03:56;;;;;;;1.57;1.23;;;16.60;99.90;;;;;;5013558;28;20191;-74
2021/08/26 03:06:22;;;;;;;0.80;0.60;;;16.50;99.90;;;;;;5015552;28;20172;-74
2021/08/26 03:08:47;;;;;;;0.70;0.50;;;16.50;99.90;;;;;;5014094;28;20202;-74
2021/08/26 03:11:13;;;;;;;0.70;0.60;;;16.40;99.90;;;;;;5014866;28;20184;-74
2021/08/26 03:13:38;;;;;;;2.20;0.80;;;16.30;99.90;;;;;;5014198;28;20262;-74
2021/08/26 03:16:05;;;;;;;1.90;1.43;;;16.40;99.90;;;;;;5016960;28;20602;-74
2021/08/26 03:18:32;;;;;;;0.90;0.67;;;16.40;99.90;;;;;;5011347;28;20640;-74
2021/08/26 03:20:57;;;;;;;0.70;0.50;;;16.40;99.90;;;;;;5014549;28;20459;-74
2021/08/26 03:23:23;;;;;;;1.73;0.73;;;16.40;99.90;;;;;;5021742;28;20469;-75
2021/08/26 03:25:49;;;;;;;1.33;1.00;;;16.30;99.90;;;;;;5016360;28;20657;-74
2021/08/26 03:28:17;;;;;;;1.80;0.70;;;16.30;99.90;;;;;;5015815;28;20235;-75
2021/08/26 03:30:43;;;;;;;4.27;1.60;;;16.40;99.90;;;;;;5017837;28;20821;-75
2021/08/26 03:33:08;;;;;;;2.00;1.90;;;16.30;99.90;;;;;;5013784;28;20431;-74
2021/08/26 03:35:34;;;;;;;0.70;0.50;;;16.30;99.90;;;;;;5015923;28;20176;-75
2021/08/26 03:37:59;;;;;;;0.70;0.50;;;16.40;99.90;;;;;;5016529;28;20599;-75
2021/08/26 03:40:25;;;;;;;0.70;0.50;;;16.40;99.90;;;;;;5018305;28;20172;-75
2021/08/26 03:42:50;;;;;;;0.70;0.60;;;16.40;99.90;;;;;;5014865;28;20180;-75
2021/08/26 03:45:16;;;;;;;0.83;0.80;;;16.40;99.90;;;;;;5015361;28;20180;-75
2021/08/26 03:47:41;;;;;;;1.00;0.60;;;16.40;99.90;;;;;;5014342;28;20235;-74
2021/08/26 03:50:08;;;;;;;0.70;0.50;;;16.40;99.90;;;;;;5014189;28;20702;-74
2021/08/26 03:52:33;;;;;;;0.80;0.70;;;16.40;99.90;;;;;;5017501;28;20180;-74
2021/08/26 03:54:59;;;;;;;0.70;0.50;;;16.30;99.90;;;;;;5015602;28;20441;-75
2021/08/26 03:57:24;;;;;;;0.80;0.80;;;16.40;99.90;;;;;;5013426;28;20694;-74
2021/08/26 03:59:50;;;;;;;0.83;0.60;;;16.30;99.90;;;;;;5015668;28;20176;-75
2021/08/26 04:02:15;;;;;;;0.70;0.60;;;16.30;99.90;;;;;;5024054;28;20589;-75
2021/08/26 04:04:41;;;;;;;0.70;0.50;;;16.30;99.90;;;;;;5016544;28;20172;-75
2021/08/26 04:07:06;;;;;;;1.00;0.80;;;16.30;99.90;;;;;;5019326;28;20203;-73
2021/08/26 04:09:32;;;;;;;0.70;0.50;;;16.30;99.90;;;;;;5018473;28;20246;-73
2021/08/26 04:11:57;;;;;;;0.70;0.60;;;16.30;99.90;;;;;;5018149;28;20505;-73
2021/08/26 04:14:23;;;;;;;0.70;0.50;;;16.30;99.90;;;;;;5018356;28;20180;-74
2021/08/26 04:16:48;;;;;;;1.63;1.53;;;16.30;99.90;;;;;;5014535;28;20684;-73
2021/08/26 04:19:14;;;;;;;1.30;0.80;;;16.40;99.90;;;;;;5015414;28;20220;-73
2021/08/26 04:21:39;;;;;;;0.70;0.50;;;16.40;99.90;;;;;;5013342;28;20203;-74
2021/08/26 04:24:05;;;;;;;0.70;0.60;;;16.40;99.90;;;;;;5010657;28;20264;-73
2021/08/26 04:26:31;;;;;;;0.70;0.60;;;16.40;99.90;;;;;;5015210;28;20330;-72
2021/08/26 04:28:56;;;;;;;0.70;0.50;;;16.50;99.90;;;;;;5013789;28;20192;-73
2021/08/26 04:31:22;;;;;;;0.70;0.50;;;16.50;99.90;;;;;;5012832;28;20171;-74
2021/08/26 04:33:47;;;;;;;1.57;1.47;;;16.50;99.90;;;;;;5017219;28;20184;-73
2021/08/26 04:36:13;;;;;;;0.70;0.50;;;16.50;99.90;;;;;;5019205;28;20179;-74
2021/08/26 04:38:39;;;;;;;1.27;0.87;;;16.50;99.90;;;;;;5019125;28;20195;-74
2021/08/26 04:41:05;;;;;;;0.70;0.50;;;16.50;99.90;;;;;;5019238;28;20179;-74
2021/08/26 04:43:31;;;;;;;0.70;0.50;;;16.50;99.90;;;;;;5015663;28;20318;-74
2021/08/26 04:45:56;;;;;;;0.70;0.60;;;16.50;99.90;;;;;;5015357;28;20521;-73
2021/08/26 04:48:22;;;;;;;1.73;1.33;;;16.50;99.90;;;;;;5018641;28;20230;-74
2021/08/26 04:50:47;;;;;;;0.70;0.50;;;16.40;99.90;;;;;;5019130;28;20176;-73
2021/08/26 04:53:13;;;;;;;0.70;0.50;;;16.50;99.90;;;;;;5020487;28;20254;-74
2021/08/26 04:55:38;;;;;;;0.70;0.50;;;16.50;99.90;;;;;;5015169;28;20374;-74
2021/08/26 04:58:04;;;;;;;0.80;0.80;;;16.50;99.90;;;;;;5022596;28;20693;-74
2021/08/26 05:00:29;;;;;;;1.00;0.57;;;16.60;99.90;;;;;;5018903;28;20211;-73
2021/08/26 05:02:55;;;;;;;0.80;0.80;;;16.50;99.90;;;;;;5017542;28;20254;-73
2021/08/26 05:05:20;;;;;;;1.07;0.93;;;16.50;99.90;;;;;;5026431;28;20279;-73
2021/08/26 05:07:46;;;;;;;1.20;0.83;;;16.50;99.90;;;;;;5016810;28;20703;-73
2021/08/26 05:10:11;;;;;;;1.00;0.70;;;16.50;99.90;;;;;;5019570;28;20275;-73
2021/08/26 05:12:37;;;;;;;1.43;0.87;;;16.50;99.90;;;;;;5017195;28;20191;-74
2021/08/26 05:15:03;;;;;;;0.80;0.73;;;16.50;99.90;;;;;;5012807;28;20180;-73
2021/08/26 05:17:28;;;;;;;3.73;1.30;;;16.50;99.90;;;;;;5017893;28;20203;-73
2021/08/26 05:19:54;;;;;;;0.70;0.50;;;16.40;99.90;;;;;;5017226;28;20687;-73
2021/08/26 05:22:20;;;;;;;0.70;0.60;;;16.40;99.90;;;;;;5016400;28;20234;-73
2021/08/26 05:24:47;;;;;;;0.70;0.50;;;16.50;99.90;;;;;;5017073;28;20180;-73
2021/08/26 05:27:13;;;;;;;0.83;0.60;;;16.40;99.90;;;;;;5015784;28;20506;-73
2021/08/26 05:29:38;;;;;;;0.80;0.70;;;16.50;99.90;;;;;;5016532;28;20515;-74
2021/08/26 05:32:04;;;;;;;0.70;0.70;;;16.50;99.90;;;;;;5019080;28;20183;-73
2021/08/26 05:34:30;;;;;;;0.70;0.60;;;16.50;99.90;;;;;;5017434;28;20653;-73
2021/08/26 05:36:56;;;;;;;1.53;1.43;;;16.50;99.90;;;;;;5019542;28;20433;-73
2021/08/26 05:39:21;;;;;;;0.90;0.60;;;16.50;99.90;;;;;;5017537;28;20215;-73
2021/08/26 05:41:47;;;;;;;0.70;0.60;;;16.60;99.90;;;;;;5016971;28;20270;-73
2021/08/26 05:44:14;;;;;;;4.20;0.80;;;16.60;99.90;;;;;;5023187;28;20175;-73
2021/08/26 05:46:40;;;;;;;1.20;1.10;;;16.60;99.90;;;;;;5016014;28;20287;-73
2021/08/26 05:49:05;;;;;;;4.00;0.60;;;16.60;99.90;;;;;;5018311;28;21011;-73
2021/08/26 05:51:31;;;;;;;0.80;0.60;;;16.60;99.90;;;;;;5018758;28;20928;-73
2021/08/26 05:53:56;;;;;;;0.70;0.50;;;16.70;99.90;;;;;;5014808;28;20649;-74
2021/08/26 05:56:22;;;;;;;3.30;3.13;;;16.70;99.90;;;;;;5018358;28;20258;-73
2021/08/26 05:58:48;;;;;;;0.80;0.60;;;16.70;99.90;;;;;;5016476;28;20293;-74
2021/08/26 06:01:13;;;;;;;1.23;1.17;;;16.70;99.90;;;;;;5014860;28;20431;-74
2021/08/26 06:03:39;;;;;;;4.80;4.40;;;16.70;99.90;;;;;;5017654;28;20583;-74
2021/08/26 06:06:04;;;;;;;0.80;0.60;;;16.70;99.90;;;;;;5015825;28;20184;-74
2021/08/26 06:08:30;;;;;;;0.70;0.60;;;16.70;99.90;;;;;;5011111;28;20238;-74
2021/08/26 06:10:56;;;;;;;0.70;0.50;;;16.70;99.90;;;;;;5016973;28;20203;-75
2021/08/26 06:13:22;;;;;;;0.97;0.87;;;16.80;99.90;;;;;;5027282;28;20520;-75
2021/08/26 06:15:47;;;;;;;0.80;0.70;;;16.80;99.90;;;;;;5020545;28;21057;-74
2021/08/26 06:18:15;;;;;;;0.80;0.80;;;16.90;99.90;;;;;;5025074;28;20572;-74
2021/08/26 06:20:42;;;;;;;9.20;1.20;;;16.90;99.90;;;;;;5025208;28;20180;-73
2021/08/26 06:23:07;;;;;;;0.70;0.60;;;16.90;99.90;;;;;;5041482;28;20499;-74
2021/08/26 06:25:33;;;;;;;0.70;0.60;;;16.90;99.90;;;;;;5023877;28;20542;-74
2021/08/26 06:27:59;;;;;;;0.70;0.67;;;16.90;99.90;;;;;;5021946;28;20703;-74
2021/08/26 06:30:26;;;;;;;0.90;0.63;;;17.00;99.90;;;;;;5021776;28;20176;-74
2021/08/26 06:32:52;;;;;;;3.70;0.80;;;17.00;99.90;;;;;;5023993;28;20423;-75
2021/08/26 06:35:17;;;;;;;0.70;0.50;;;17.00;99.90;;;;;;5022570;28;20463;-73
2021/08/26 06:37:43;;;;;;;0.80;0.70;;;17.10;99.90;;;;;;5018120;28;20450;-74
2021/08/26 06:40:09;;;;;;;0.70;0.50;;;17.10;99.90;;;;;;5015987;28;20261;-73
2021/08/26 06:42:35;;;;;;;0.90;0.77;;;17.10;99.90;;;;;;5016000;28;20179;-73
2021/08/26 06:45:00;;;;;;;0.90;0.57;;;17.10;99.90;;;;;;5012005;28;20431;-73
2021/08/26 06:47:26;;;;;;;1.37;0.80;;;17.10;99.90;;;;;;5018551;28;20263;-74
2021/08/26 06:49:51;;;;;;;0.80;0.73;;;17.10;99.90;;;;;;5015814;28;20199;-74
2021/08/26 06:52:17;;;;;;;1.47;0.70;;;17.10;99.90;;;;;;5014528;28;20168;-73
2021/08/26 06:54:43;;;;;;;2.03;1.73;;;17.10;99.90;;;;;;5016282;28;20203;-74
2021/08/26 06:57:09;;;;;;;1.10;0.60;;;17.10;99.90;;;;;;5013514;28;20481;-73
2021/08/26 06:59:35;;;;;;;1.50;1.40;;;17.00;99.90;;;;;;5017280;28;20182;-74
2021/08/26 07:02:00;;;;;;;0.70;0.70;;;17.00;99.90;;;;;;5016406;28;20306;-74
2021/08/26 07:04:26;;;;;;;0.80;0.60;;;17.00;99.90;;;;;;5020473;28;20430;-74
2021/08/26 07:06:53;;;;;;;1.00;0.70;;;17.00;99.90;;;;;;5010863;28;20226;-73
2021/08/26 07:09:19;;;;;;;0.80;0.60;;;16.90;99.90;;;;;;5022650;28;20191;-74
2021/08/26 07:11:45;;;;;;;0.70;0.50;;;17.00;99.90;;;;;;5027046;28;20435;-75
2021/08/26 07:14:10;;;;;;;1.13;0.60;;;17.00;99.90;;;;;;5031776;28;20444;-73
2021/08/26 07:16:36;;;;;;;0.70;0.50;;;17.10;99.90;;;;;;5021615;28;20178;-73
2021/08/26 07:19:02;;;;;;;0.70;0.50;;;17.10;99.90;;;;;;5035136;28;20201;-76
2021/08/26 07:21:27;;;;;;;0.80;0.60;;;17.20;99.90;;;;;;5032835;28;20167;-72
2021/08/26 07:23:53;;;;;;;0.70;0.50;;;17.20;99.90;;;;;;5017734;28;20187;-74
2021/08/26 07:26:19;;;;;;;0.90;0.90;;;17.20;99.90;;;;;;5019961;28;20203;-76
2021/08/26 07:28:45;;;;;;;0.80;0.77;;;17.30;99.90;;;;;;5033644;28;20267;-76
2021/08/26 07:31:11;;;;;;;1.37;1.27;;;17.30;99.90;;;;;;5016950;28;20439;-75
2021/08/26 07:33:36;;;;;;;1.20;1.10;;;17.40;99.90;;;;;;5015283;28;20948;-76
2021/08/26 07:36:05;;;;;;;0.83;0.83;;;17.40;99.90;;;;;;5025274;28;20195;-74
2021/08/26 07:38:31;;;;;;;1.87;1.77;;;17.50;99.90;;;;;;5020549;28;20207;-74
2021/08/26 07:40:57;;;;;;;2.10;1.63;;;17.50;99.90;;;;;;5025125;28;20584;-76
2021/08/26 07:43:25;;;;;;;1.50;0.70;;;17.60;99.90;;;;;;5030433;28;20485;-76
2021/08/26 07:45:54;;;;;;;2.90;2.70;;;17.70;99.90;;;;;;5020202;28;20438;-76
2021/08/26 07:48:19;;;;;;;1.90;0.80;;;17.70;99.90;;;;;;5020779;28;20527;-75
2021/08/26 07:50:47;;;;;;;0.70;0.50;;;17.80;99.90;;;;;;5030948;28;20426;-73
2021/08/26 07:53:12;;;;;;;2.07;1.97;;;17.90;99.90;;;;;;5012374;28;20306;-74
2021/08/26 07:55:38;;;;;;;0.70;0.50;;;18.00;99.90;;;;;;5016836;28;20927;-74
2021/08/26 07:58:04;;;;;;;0.80;0.70;;;18.20;99.90;;;;;;5011815;28;20551;-73
2021/08/26 08:00:29;;;;;;;0.90;0.80;;;18.60;99.90;;;;;;5011616;28;20180;-73
2021/08/26 08:02:55;;;;;;;0.97;0.90;;;19.00;99.90;;;;;;5015872;28;20309;-75
2021/08/26 08:05:20;;;;;;;0.70;0.50;;;19.40;99.90;;;;;;5024996;28;20172;-76
2021/08/26 08:07:46;;;;;;;1.40;0.97;;;19.60;99.90;;;;;;5028277;28;20196;-74
2021/08/26 08:10:15;;;;;;;0.73;0.60;;;19.90;99.90;;;;;;5018101;28;20172;-73
2021/08/26 08:12:42;;;;;;;2.53;2.40;;;20.00;99.90;;;;;;5016040;28;20178;-74
2021/08/26 08:15:08;;;;;;;0.80;0.60;;;20.20;99.90;;;;;;5014897;28;20414;-74
2021/08/26 08:17:34;;;;;;;1.30;1.03;;;20.40;99.90;;;;;;5023822;28;20446;-74
2021/08/26 08:20:00;;;;;;;1.00;0.87;;;20.50;99.90;;;;;;5027646;28;20509;-73
2021/08/26 08:22:26;;;;;;;1.63;1.17;;;20.50;99.90;;;;;;5029147;28;20182;-75
2021/08/26 08:24:51;;;;;;;1.40;0.60;;;20.40;99.90;;;;;;5030495;28;20172;-75
2021/08/26 08:27:17;;;;;;;1.97;0.63;;;20.60;99.90;;;;;;5016621;28;20169;-76
2021/08/26 08:29:42;;;;;;;1.07;0.80;;;21.00;99.90;;;;;;5026767;28;20164;-76
2021/08/26 08:32:08;;;;;;;6.63;1.80;;;21.20;99.90;;;;;;5033796;28;20179;-76
2021/08/26 08:34:33;;;;;;;0.90;0.80;;;21.60;99.90;;;;;;5021953;28;20188;-77
2021/08/26 08:37:02;;;;;;;1.00;0.70;;;21.70;99.90;;;;;;5019469;28;20180;-77
2021/08/26 08:39:28;;;;;;;0.80;0.60;;;21.70;99.90;;;;;;5025916;28;20192;-76
2021/08/26 08:41:53;;;;;;;4.50;0.70;;;21.70;99.90;;;;;;5024785;28;20445;-75
2021/08/26 08:44:19;;;;;;;0.93;0.70;;;21.40;99.90;;;;;;5016604;28;20182;-73
2021/08/26 08:46:48;;;;;;;0.80;0.63;;;21.10;99.90;;;;;;5025714;28;20184;-73
2021/08/26 08:49:18;;;;;;;1.80;1.00;;;21.00;99.90;;;;;;5016728;28;20714;-74
2021/08/26 08:51:44;;;;;;;0.80;0.60;;;20.90;99.90;;;;;;5020143;28;20803;-75
2021/08/26 08:54:09;;;;;;;1.57;1.47;;;20.90;99.90;;;;;;5020808;28;20431;-75
2021/08/26 08:56:35;;;;;;;0.80;0.60;;;20.80;99.90;;;;;;5020253;28;20267;-75
2021/08/26 08:59:00;;;;;;;1.50;1.23;;;20.70;99.90;;;;;;5012953;28;20291;-75
2021/08/26 09:01:26;;;;;;;1.23;0.83;;;20.50;99.90;;;;;;5014340;28;20183;-74
2021/08/26 09:03:52;;;;;;;1.60;1.50;;;20.30;99.90;;;;;;5020177;28;20254;-74
2021/08/26 09:06:17;;;;;;;1.27;0.90;;;20.20;99.90;;;;;;5012928;28;20435;-75
2021/08/26 09:09:03;;;;;;;1.00;0.90;;;20.20;99.90;;;;;;5014614;28;20219;-75
2021/08/26 09:11:29;;;;;;;0.90;0.70;;;20.20;99.90;;;;;;5014532;28;20175;-73
2021/08/26 09:13:54;;;;;;;1.07;0.97;;;20.40;99.90;;;;;;5016747;28;20442;-73
2021/08/26 09:16:36;;;;;;;0.80;0.60;;;20.40;99.90;;;;;;5015195;28;20307;-75
2021/08/26 09:19:30;;;;;;;1.20;0.80;;;20.50;99.90;;;;;;5015740;28;20305;-74
2021/08/26 09:22:01;;;;;;;1.10;1.00;;;20.60;99.90;;;;;;5025668;28;20442;-73
2021/08/26 09:24:44;;;;;;;0.80;0.60;;;20.70;99.90;;;;;;5022106;28;20419;-75
2021/08/26 09:27:10;;;;;;;0.80;0.70;;;20.80;99.90;;;;;;5029061;28;20433;-74
2021/08/26 09:29:59;;;;;;;1.37;1.27;;;20.80;99.90;;;;;;5023714;28;20636;-75
2021/08/26 09:32:36;;;;;;;0.70;0.60;;;20.60;99.90;;;;;;5013857;28;20419;-74
2021/08/26 09:35:09;;;;;;;0.80;0.50;;;20.10;99.90;;;;;;5015794;28;20783;-74
2021/08/26 09:37:53;;;;;;;0.70;0.50;;;19.70;99.90;;;;;;5013983;28;20942;-73
2021/08/26 09:40:24;;;;;;;0.77;0.50;;;19.60;99.90;;;;;;5021047;28;20534;-74
2021/08/26 09:43:04;;;;;;;6.20;1.80;;;19.30;99.90;;;;;;5019491;28;20438;-74
2021/08/26 09:45:32;;;;;;;0.97;0.57;;;19.20;99.90;;;;;;5032386;28;20406;-75
2021/08/26 09:48:09;;;;;;;1.00;0.60;;;19.20;99.90;;;;;;5034828;28;20446;-75
2021/08/26 09:50:40;;;;;;;1.10;0.93;;;19.30;99.90;;;;;;5038988;28;20521;-74
2021/08/26 09:53:07;;;;;;;0.80;0.60;;;19.40;99.90;;;;;;5034881;28;20431;-75
2021/08/26 09:55:58;;;;;;;1.23;0.60;;;19.50;99.90;;;;;;5030931;28;20564;-76
2021/08/26 09:58:29;;;;;;;0.73;0.60;;;19.40;99.90;;;;;;5030630;28;20938;-74
2021/08/26 10:01:18;;;;;;;1.87;0.90;;;19.40;99.90;;;;;;5014836;28;20434;-74
2021/08/26 10:03:44;;;;;;;0.70;0.50;;;19.40;99.90;;;;;;5038382;28;20410;-75
2021/08/26 10:06:11;;;;;;;0.70;0.60;;;19.40;99.90;;;;;;5034630;28;20414;-74
2021/08/26 10:08:39;;;;;;;0.80;0.70;;;19.50;99.90;;;;;;5018472;28;20665;-74
2021/08/26 10:11:08;;;;;;;0.70;0.60;;;19.50;99.90;;;;;;5027337;28;20509;-74
2021/08/26 10:13:34;;;;;;;1.37;0.70;;;19.50;99.90;;;;;;5022218;28;20428;-74
2021/08/26 10:16:00;;;;;;;1.23;0.90;;;19.80;99.90;;;;;;5032135;28;20440;-74
2021/08/26 10:18:28;;;;;;;1.53;1.27;;;20.10;99.90;;;;;;5032927;28;20449;-73
2021/08/26 10:20:55;;;;;;;0.70;0.50;;;20.50;99.90;;;;;;5032957;28;20168;-73
2021/08/26 10:23:21;;;;;;;2.30;1.47;;;20.90;99.90;;;;;;5032814;28;20420;-74
2021/08/26 10:25:47;;;;;;;0.80;0.80;;;21.20;99.90;;;;;;5032633;28;20413;-73
2021/08/26 10:28:15;;;;;;;4.80;2.70;;;21.40;99.90;;;;;;5032758;28;20436;-74
2021/08/26 10:30:43;;;;;;;0.80;0.60;;;21.60;99.90;;;;;;5018594;28;20428;-74
2021/08/26 10:33:12;;;;;;;0.80;0.60;;;21.60;99.90;;;;;;5012967;28;20450;-74
2021/08/26 10:35:50;;;;;;;0.80;0.50;;;21.50;99.90;;;;;;5012629;28;20446;-74
2021/08/26 10:38:28;;;;;;;0.70;0.60;;;21.60;99.90;;;;;;5020195;28;20475;-74
2021/08/26 10:40:55;;;;;;;0.80;0.60;;;21.70;99.90;;;;;;5028769;28;20411;-75
2021/08/26 10:43:40;;;;;;;2.17;1.40;;;21.70;99.90;;;;;;5020657;28;20438;-75
2021/08/26 10:46:08;;;;;;;1.67;1.10;;;21.50;99.90;;;;;;5038241;28;20414;-76
2021/08/26 10:48:34;;;;;;;0.80;0.57;;;21.40;99.90;;;;;;5039984;28;20442;-76
2021/08/26 10:51:07;;;;;;;1.60;1.50;;;21.20;99.90;;;;;;5026360;28;20487;-75
2021/08/26 10:53:38;;;;;;;0.80;0.60;;;21.10;99.90;;;;;;5020332;28;20502;-74
2021/08/26 10:56:23;;;;;;;1.00;0.90;;;21.00;99.90;;;;;;5029749;28;20518;-75
2021/08/26 10:58:51;;;;;;;3.10;2.93;;;21.00;99.90;;;;;;5015624;28;20463;-74
2021/08/26 11:01:28;;;;;;;0.70;0.50;;;21.10;99.90;;;;;;5030091;28;20433;-74
2021/08/26 11:03:56;;;;;;;2.60;1.63;;;21.10;99.90;;;;;;5032178;28;20434;-74
2021/08/26 11:06:27;;;;;;;0.70;0.60;;;21.30;99.90;;;;;;5030079;28;20422;-74
2021/08/26 11:09:12;;;;;;;0.80;0.60;;;21.50;99.90;;;;;;5020573;28;20446;-74
2021/08/26 11:11:40;;;;;;;1.30;1.20;;;21.60;99.90;;;;;;5030695;28;20814;-74
2021/08/26 11:14:06;;;;;;;0.80;0.60;;;22.10;99.90;;;;;;5012351;28;20414;-74
2021/08/26 11:16:39;;;;;;;0.80;0.50;;;22.50;99.90;;;;;;5024083;28;20421;-74
2021/08/26 11:19:04;;;;;;;0.83;0.63;;;22.70;99.90;;;;;;5020718;28;20218;-75
2021/08/26 11:21:42;;;;;;;0.80;0.50;;;22.90;99.90;;;;;;5012396;28;20754;-75
2021/08/26 11:24:31;;;;;;;0.77;0.60;;;23.10;99.90;;;;;;5023949;28;20171;-75
2021/08/26 11:27:00;;;;;;;1.20;0.60;;;23.20;99.90;;;;;;5031677;28;20498;-75
2021/08/26 11:29:25;;;;;;;2.67;1.03;;;23.40;99.90;;;;;;5026569;28;20867;-75
2021/08/26 11:31:54;;;;;;;1.57;0.90;;;23.40;99.90;;;;;;5024067;28;20434;-75
2021/08/26 11:34:31;;;;;;;0.93;0.83;;;23.20;99.90;;;;;;5019567;28;20183;-75
2021/08/26 11:37:10;;;;;;;1.23;0.60;;;23.00;99.90;;;;;;5018013;28;20501;-75
2021/08/26 11:39:55;;;;;;;0.80;0.50;;;22.80;99.90;;;;;;5017012;28;20461;-75
2021/08/26 11:42:24;;;;;;;0.70;0.60;;;22.60;99.90;;;;;;5013659;28;20440;-73
2021/08/26 11:45:07;;;;;;;1.00;0.70;;;22.50;99.90;;;;;;5014659;28;20451;-75
2021/08/26 11:47:34;;;;;;;0.80;0.60;;;22.60;99.90;;;;;;5016343;28;20423;-77
2021/08/26 11:50:13;;;;;;;0.80;0.50;;;22.90;99.90;;;;;;5035896;28;20426;-78
2021/08/26 11:52:40;;;;;;;0.93;0.63;;;23.60;99.90;;;;;;5040820;28;20424;-77
2021/08/26 11:55:06;;;;;;;0.90;0.60;;;24.00;99.90;;;;;;5032341;28;20484;-75
2021/08/26 11:57:31;;;;;;;0.80;0.50;;;24.20;99.90;;;;;;5034227;28;20807;-75
2021/08/26 12:00:13;;;;;;;0.97;0.80;;;24.30;99.90;;;;;;5022121;28;20422;-74
2021/08/26 12:02:41;;;;;;;0.90;0.63;;;24.40;99.90;;;;;;5020804;28;20634;-74
2021/08/26 12:05:12;;;;;;;2.40;2.20;;;24.50;99.90;;;;;;5019719;28;20511;-73
2021/08/26 12:07:41;;;;;;;1.00;0.60;;;24.30;99.90;;;;;;5024967;28;20926;-74
2021/08/26 12:10:17;;;;;;;0.80;0.80;;;24.20;99.90;;;;;;5038338;28;20421;-74
2021/08/26 12:12:51;;;;;;;0.80;0.53;;;24.00;99.90;;;;;;5034680;28;20414;-74
2021/08/26 12:15:25;;;;;;;1.00;0.90;;;23.80;99.90;;;;;;5034941;28;20410;-74
2021/08/26 12:17:53;;;;;;;3.80;0.60;;;23.80;99.90;;;;;;5025875;28;20449;-74
2021/08/26 12:20:19;;;;;;;0.80;0.60;;;23.70;99.90;;;;;;5022499;28;20474;-75
2021/08/26 12:22:48;;;;;;;0.80;0.60;;;23.50;99.90;;;;;;5015386;28;20821;-74
2021/08/26 12:25:23;;;;;;;0.80;0.60;;;23.50;99.90;;;;;;5015132;28;20203;-74
2021/08/26 12:27:56;;;;;;;0.90;0.63;;;23.50;99.90;;;;;;5027616;28;20437;-75
2021/08/26 12:30:33;;;;;;;0.80;0.60;;;23.50;99.90;;;;;;5021401;28;20423;-75
2021/08/26 12:33:11;;;;;;;0.70;0.50;;;23.50;99.90;;;;;;5031810;28;20418;-74
2021/08/26 12:35:53;;;;;;;1.00;0.80;;;23.50;99.90;;;;;;5014817;28;20425;-74
2021/08/26 12:38:41;;;;;;;1.03;0.93;;;23.40;99.90;;;;;;5014999;28;20505;-74
2021/08/26 12:41:18;;;;;;;0.80;0.50;;;23.60;99.90;;;;;;5013757;28;20409;-74
2021/08/26 12:43:53;;;;;;;1.17;0.73;;;23.50;99.90;;;;;;5031724;28;20418;-74
2021/08/26 12:46:31;;;;;;;1.03;0.93;;;23.40;99.90;;;;;;5034485;28;20771;-74
2021/08/26 12:49:10;;;;;;;0.80;0.60;;;23.50;99.90;;;;;;5018000;28;20485;-74
2021/08/26 12:51:50;;;;;;;3.07;2.93;;;23.40;99.90;;;;;;5015579;28;20434;-74
2021/08/26 12:54:16;;;;;;;1.10;0.70;;;23.40;99.90;;;;;;5014607;28;20425;-74
2021/08/26 12:56:51;;;;;;;0.80;0.60;;;23.20;99.90;;;;;;5014379;28;20438;-74
2021/08/26 12:59:18;;;;;;;0.80;0.50;;;23.00;99.90;;;;;;5014526;28;20545;-74